sensor_id;sensor_type;location;lat;lon;timestamp;pressure;altitude;pressure_sealevel;temperature;humidity
39209;BME280;24929;51.982;4.664;2023-05-24T00:01:34;77914.56;;;-143.36;47.13
39209;BME280;24929;51.982;4.664;2023-05-24T00:04:02;77904.53;;;-143.36;47.13
39209;BME280;24929;51.982;4.664;2023-05-24T00:06:27;77906.53;;;-143.36;47.00
39209;BME280;24929;51.982;4.664;2023-05-24T00:08:53;77902.53;;;-143.36;47.66
39209;BME280;24929;51.982;4.664;2023-05-24T00:11:19;77900.53;;;-143.36;47.52
39209;BME280;24929;51.982;4.664;2023-05-24T00:13:45;77910.56;;;-143.36;47.17
39209;BME280;24929;51.982;4.664;2023-05-24T00:16:10;77912.56;;;-143.36;47.17
39209;BME280;24929;51.982;4.664;2023-05-24T00:18:36;77944.69;;;-143.36;47.96
39209;BME280;24929;51.982;4.664;2023-05-24T00:21:06;77944.69;;;-143.36;48.15
39209;BME280;24929;51.982;4.664;2023-05-24T00:23:32;77950.69;;;-143.36;48.10
39209;BME280;24929;51.982;4.664;2023-05-24T00:25:58;77962.75;;;-143.36;48.09
39209;BME280;24929;51.982;4.664;2023-05-24T00:28:23;77962.75;;;-143.36;47.96
39209;BME280;24929;51.982;4.664;2023-05-24T00:30:49;77964.75;;;-143.36;47.96
39209;BME280;24929;51.982;4.664;2023-05-24T00:33:15;77966.75;;;-143.36;48.28
39209;BME280;24929;51.982;4.664;2023-05-24T00:35:40;77964.75;;;-143.36;48.45
39209;BME280;24929;51.982;4.664;2023-05-24T00:38:06;77980.81;;;-143.36;48.74
39209;BME280;24929;51.982;4.664;2023-05-24T00:40:31;77984.84;;;-143.36;48.34
39209;BME280;24929;51.982;4.664;2023-05-24T00:42:56;77988.84;;;-143.36;49.03
39209;BME280;24929;51.982;4.664;2023-05-24T00:45:22;77984.84;;;-143.36;48.55
39209;BME280;24929;51.982;4.664;2023-05-24T00:47:47;77990.84;;;-143.36;49.14
39209;BME280;24929;51.982;4.664;2023-05-24T00:50:12;78008.91;;;-143.36;49.57
39209;BME280;24929;51.982;4.664;2023-05-24T00:52:40;77972.78;;;-143.36;49.53
39209;BME280;24929;51.982;4.664;2023-05-24T00:55:06;77988.84;;;-143.36;49.96
39209;BME280;24929;51.982;4.664;2023-05-24T00:57:34;77988.84;;;-143.36;50.13
39209;BME280;24929;51.982;4.664;2023-05-24T01:00:00;78000.88;;;-143.36;50.00
39209;BME280;24929;51.982;4.664;2023-05-24T01:02:25;78010.94;;;-143.36;50.23
39209;BME280;24929;51.982;4.664;2023-05-24T01:04:51;78014.94;;;-143.36;50.33
39209;BME280;24929;51.982;4.664;2023-05-24T01:07:41;77942.69;;;-143.36;49.12
39209;BME280;24929;51.982;4.664;2023-05-24T01:10:16;77974.78;;;-143.36;50.64
39209;BME280;24929;51.982;4.664;2023-05-24T01:13:07;77950.69;;;-143.36;50.06
39209;BME280;24929;51.982;4.664;2023-05-24T01:18:31;78010.94;;;-143.36;50.54
39209;BME280;24929;51.982;4.664;2023-05-24T01:24:11;77948.69;;;-143.36;49.38
39209;BME280;24929;51.982;4.664;2023-05-24T01:29:22;78024.97;;;-143.36;50.80
39209;BME280;24929;51.982;4.664;2023-05-24T01:31:48;78006.91;;;-143.36;50.47
39209;BME280;24929;51.982;4.664;2023-05-24T01:34:14;78031.00;;;-143.36;50.50
39209;BME280;24929;51.982;4.664;2023-05-24T01:36:39;78022.97;;;-143.36;50.51
39209;BME280;24929;51.982;4.664;2023-05-24T01:39:04;78022.97;;;-143.36;50.46
39209;BME280;24929;51.982;4.664;2023-05-24T01:41:47;77956.72;;;-143.36;50.26
39209;BME280;24929;51.982;4.664;2023-05-24T01:44:35;77964.75;;;-143.36;50.66
39209;BME280;24929;51.982;4.664;2023-05-24T01:47:04;77950.69;;;-143.36;50.41
39209;BME280;24929;51.982;4.664;2023-05-24T01:49:39;77982.81;;;-143.36;50.69
39209;BME280;24929;51.982;4.664;2023-05-24T01:52:15;77974.78;;;-143.36;51.00
39209;BME280;24929;51.982;4.664;2023-05-24T01:54:44;77986.84;;;-143.36;51.21
39209;BME280;24929;51.982;4.664;2023-05-24T01:57:11;78031.00;;;-143.36;51.94
39209;BME280;24929;51.982;4.664;2023-05-24T01:59:41;77994.88;;;-143.36;51.81
39209;BME280;24929;51.982;4.664;2023-05-24T02:02:08;78010.94;;;-143.36;51.44
39209;BME280;24929;51.982;4.664;2023-05-24T02:04:33;78010.94;;;-143.36;51.91
39209;BME280;24929;51.982;4.664;2023-05-24T02:06:59;78008.91;;;-143.36;51.61
39209;BME280;24929;51.982;4.664;2023-05-24T02:09:24;78033.00;;;-143.36;51.83
39209;BME280;24929;51.982;4.664;2023-05-24T02:11:49;78018.97;;;-143.36;51.68
39209;BME280;24929;51.982;4.664;2023-05-24T02:14:15;78008.91;;;-143.36;51.46
39209;BME280;24929;51.982;4.664;2023-05-24T02:16:41;78029.00;;;-143.36;51.96
39209;BME280;24929;51.982;4.664;2023-05-24T02:19:13;78012.94;;;-143.36;51.80
39209;BME280;24929;51.982;4.664;2023-05-24T02:21:38;78029.00;;;-143.36;51.94
39209;BME280;24929;51.982;4.664;2023-05-24T02:24:05;78029.00;;;-143.36;51.99
39209;BME280;24929;51.982;4.664;2023-05-24T02:26:31;78031.00;;;-143.36;51.83
39209;BME280;24929;51.982;4.664;2023-05-24T02:28:57;78031.00;;;-143.36;51.77
39209;BME280;24929;51.982;4.664;2023-05-24T02:31:22;78031.00;;;-143.36;51.62
39209;BME280;24929;51.982;4.664;2023-05-24T02:33:49;78045.06;;;-143.36;52.10
39209;BME280;24929;51.982;4.664;2023-05-24T02:36:15;78051.06;;;-143.36;52.22
39209;BME280;24929;51.982;4.664;2023-05-24T02:38:40;78039.03;;;-143.36;52.22
39209;BME280;24929;51.982;4.664;2023-05-24T02:41:06;78049.06;;;-143.36;52.28
39209;BME280;24929;51.982;4.664;2023-05-24T02:43:33;78049.06;;;-143.36;52.50
39209;BME280;24929;51.982;4.664;2023-05-24T02:45:58;78055.09;;;-143.36;52.41
39209;BME280;24929;51.982;4.664;2023-05-24T02:48:23;78055.09;;;-143.36;53.32
39209;BME280;24929;51.982;4.664;2023-05-24T02:50:49;78067.13;;;-143.36;53.49
39209;BME280;24929;51.982;4.664;2023-05-24T02:53:14;78071.16;;;-143.36;53.45
39209;BME280;24929;51.982;4.664;2023-05-24T02:55:40;78073.16;;;-143.36;53.42
39209;BME280;24929;51.982;4.664;2023-05-24T02:58:08;78071.16;;;-143.36;53.66
39209;BME280;24929;51.982;4.664;2023-05-24T03:00:33;78069.16;;;-143.36;53.51
39209;BME280;24929;51.982;4.664;2023-05-24T03:02:58;78067.13;;;-143.36;53.41
39209;BME280;24929;51.982;4.664;2023-05-24T03:05:27;78081.19;;;-143.36;53.40
39209;BME280;24929;51.982;4.664;2023-05-24T03:07:52;78067.13;;;-143.36;53.29
39209;BME280;24929;51.982;4.664;2023-05-24T03:10:18;78069.16;;;-143.36;53.40
39209;BME280;24929;51.982;4.664;2023-05-24T03:12:43;78071.16;;;-143.36;53.28
39209;BME280;24929;51.982;4.664;2023-05-24T03:15:09;78059.09;;;-143.36;53.13
39209;BME280;24929;51.982;4.664;2023-05-24T03:17:34;78063.13;;;-143.36;53.20
39209;BME280;24929;51.982;4.664;2023-05-24T03:19:59;78073.16;;;-143.36;53.25
39209;BME280;24929;51.982;4.664;2023-05-24T03:22:25;78061.13;;;-143.36;53.04
39209;BME280;24929;51.982;4.664;2023-05-24T03:24:50;78063.13;;;-143.36;53.13
39209;BME280;24929;51.982;4.664;2023-05-24T03:27:16;78043.03;;;-143.36;52.93
39209;BME280;24929;51.982;4.664;2023-05-24T03:29:41;78047.06;;;-143.36;52.32
39209;BME280;24929;51.982;4.664;2023-05-24T03:32:06;78049.06;;;-143.36;53.03
39209;BME280;24929;51.982;4.664;2023-05-24T03:34:32;78047.06;;;-143.36;52.67
39209;BME280;24929;51.982;4.664;2023-05-24T03:36:57;78041.03;;;-143.36;52.63
39209;BME280;24929;51.982;4.664;2023-05-24T03:39:22;78035.03;;;-143.36;52.29
39209;BME280;24929;51.982;4.664;2023-05-24T03:41:48;78047.06;;;-143.36;52.80
39209;BME280;24929;51.982;4.664;2023-05-24T03:44:13;78039.03;;;-143.36;52.76
39209;BME280;24929;51.982;4.664;2023-05-24T03:46:38;78024.97;;;-143.36;52.49
39209;BME280;24929;51.982;4.664;2023-05-24T03:49:05;78012.94;;;-143.36;53.69
39209;BME280;24929;51.982;4.664;2023-05-24T03:51:31;78035.03;;;-143.36;53.19
39209;BME280;24929;51.982;4.664;2023-05-24T03:53:56;78035.03;;;-143.36;53.90
39209;BME280;24929;51.982;4.664;2023-05-24T03:56:22;78020.97;;;-143.36;54.06
39209;BME280;24929;51.982;4.664;2023-05-24T03:58:47;78029.00;;;-143.36;54.14
39209;BME280;24929;51.982;4.664;2023-05-24T04:01:12;78033.00;;;-143.36;54.34
39209;BME280;24929;51.982;4.664;2023-05-24T04:03:38;78027.00;;;-143.36;54.32
39209;BME280;24929;51.982;4.664;2023-05-24T04:06:04;78014.94;;;-143.36;54.14
39209;BME280;24929;51.982;4.664;2023-05-24T04:08:30;78010.94;;;-143.36;54.15
39209;BME280;24929;51.982;4.664;2023-05-24T04:10:55;78012.94;;;-143.36;54.60
39209;BME280;24929;51.982;4.664;2023-05-24T04:13:21;78004.91;;;-143.36;54.30
39209;BME280;24929;51.982;4.664;2023-05-24T04:15:46;78002.91;;;-143.36;54.09
39209;BME280;24929;51.982;4.664;2023-05-24T04:18:12;77988.84;;;-143.36;53.34
39209;BME280;24929;51.982;4.664;2023-05-24T04:20:38;77994.88;;;-143.36;54.12
39209;BME280;24929;51.982;4.664;2023-05-24T04:23:03;77994.88;;;-143.36;54.21
39209;BME280;24929;51.982;4.664;2023-05-24T04:25:28;77974.78;;;-143.36;53.88
39209;BME280;24929;51.982;4.664;2023-05-24T04:27:54;77982.81;;;-143.36;53.62
39209;BME280;24929;51.982;4.664;2023-05-24T04:30:20;77966.75;;;-143.36;54.30
39209;BME280;24929;51.982;4.664;2023-05-24T04:32:46;77948.69;;;-143.36;53.64
39209;BME280;24929;51.982;4.664;2023-05-24T04:35:12;77946.69;;;-143.36;53.86
39209;BME280;24929;51.982;4.664;2023-05-24T04:37:38;77930.63;;;-143.36;53.57
39209;BME280;24929;51.982;4.664;2023-05-24T04:40:06;77910.56;;;-143.36;53.53
39209;BME280;24929;51.982;4.664;2023-05-24T04:42:32;77958.72;;;-143.36;54.51
39209;BME280;24929;51.982;4.664;2023-05-24T04:44:57;77970.78;;;-143.36;55.57
39209;BME280;24929;51.982;4.664;2023-05-24T04:47:23;77896.50;;;-143.36;54.01
39209;BME280;24929;51.982;4.664;2023-05-24T04:49:49;77896.50;;;-143.36;53.44
39209;BME280;24929;51.982;4.664;2023-05-24T04:52:15;77904.53;;;-143.36;53.84
39209;BME280;24929;51.982;4.664;2023-05-24T04:54:41;77878.44;;;-143.36;54.03
39209;BME280;24929;51.982;4.664;2023-05-24T04:57:06;77866.38;;;-143.36;53.71
39209;BME280;24929;51.982;4.664;2023-05-24T04:59:32;77884.47;;;-143.36;53.97
39209;BME280;24929;51.982;4.664;2023-05-24T05:01:57;77910.56;;;-143.36;54.94
39209;BME280;24929;51.982;4.664;2023-05-24T05:04:22;77884.47;;;-143.36;54.56
39209;BME280;24929;51.982;4.664;2023-05-24T05:06:48;77866.38;;;-143.36;54.32
39209;BME280;24929;51.982;4.664;2023-05-24T05:09:13;77850.34;;;-143.36;53.50
39209;BME280;24929;51.982;4.664;2023-05-24T05:11:40;77874.41;;;-143.36;54.71
39209;BME280;24929;51.982;4.664;2023-05-24T05:14:05;77872.41;;;-143.36;55.18
39209;BME280;24929;51.982;4.664;2023-05-24T05:16:33;77880.44;;;-143.36;54.87
39209;BME280;24929;51.982;4.664;2023-05-24T05:19:00;77826.25;;;-143.36;54.72
39209;BME280;24929;51.982;4.664;2023-05-24T05:21:26;77874.41;;;-143.36;55.31
39209;BME280;24929;51.982;4.664;2023-05-24T05:23:51;77858.38;;;-143.36;54.99
39209;BME280;24929;51.982;4.664;2023-05-24T05:26:16;77832.25;;;-143.36;54.60
39209;BME280;24929;51.982;4.664;2023-05-24T05:28:42;77826.25;;;-143.36;53.77
39209;BME280;24929;51.982;4.664;2023-05-24T05:31:07;77794.13;;;-143.36;54.01
39209;BME280;24929;51.982;4.664;2023-05-24T05:33:33;77770.03;;;-143.36;53.64
39209;BME280;24929;51.982;4.664;2023-05-24T05:35:58;77796.13;;;-143.36;53.75
39209;BME280;24929;51.982;4.664;2023-05-24T05:38:24;77794.13;;;-143.36;54.25
39209;BME280;24929;51.982;4.664;2023-05-24T05:40:49;77737.91;;;-143.36;53.49
39209;BME280;24929;51.982;4.664;2023-05-24T05:43:15;77709.81;;;-143.36;52.93
39209;BME280;24929;51.982;4.664;2023-05-24T05:45:40;77739.94;;;-143.36;53.62
39209;BME280;24929;51.982;4.664;2023-05-24T05:48:06;77725.88;;;-143.36;53.31
39209;BME280;24929;51.982;4.664;2023-05-24T05:50:31;77701.78;;;-143.36;52.63
39209;BME280;24929;51.982;4.664;2023-05-24T05:52:56;77707.81;;;-143.36;53.73
39209;BME280;24929;51.982;4.664;2023-05-24T05:55:22;77667.66;;;-143.36;53.33
39209;BME280;24929;51.982;4.664;2023-05-24T05:57:48;77647.59;;;-143.36;53.19
39209;BME280;24929;51.982;4.664;2023-05-24T06:00:13;77643.56;;;-143.36;53.48
39209;BME280;24929;51.982;4.664;2023-05-24T06:02:39;77595.41;;;-143.36;52.83
39209;BME280;24929;51.982;4.664;2023-05-24T06:05:04;77583.34;;;-143.36;51.77
39209;BME280;24929;51.982;4.664;2023-05-24T06:07:30;77513.09;;;-143.36;50.97
39209;BME280;24929;51.982;4.664;2023-05-24T06:23:58;77396.69;;;-143.36;46.70
39209;BME280;24929;51.982;4.664;2023-05-24T06:26:26;77474.97;;;-143.36;47.99
39209;BME280;24929;51.982;4.664;2023-05-24T06:28:52;77501.06;;;-143.36;48.27
39209;BME280;24929;51.982;4.664;2023-05-24T06:31:17;77462.94;;;-143.36;48.08
39209;BME280;24929;51.982;4.664;2023-05-24T06:33:43;77440.84;;;-143.36;47.21
39209;BME280;24929;51.982;4.664;2023-05-24T06:36:09;77412.75;;;-143.36;46.83
39209;BME280;24929;51.982;4.664;2023-05-24T06:38:35;77432.81;;;-143.36;46.21
39209;BME280;24929;51.982;4.664;2023-05-24T06:41:00;77470.97;;;-143.36;46.56
39209;BME280;24929;51.982;4.664;2023-05-24T06:43:26;77426.78;;;-143.36;45.64
39209;BME280;24929;51.982;4.664;2023-05-24T06:45:52;77442.84;;;-143.36;45.37
39209;BME280;24929;51.982;4.664;2023-05-24T06:48:18;77442.84;;;-143.36;45.78
39209;BME280;24929;51.982;4.664;2023-05-24T06:50:44;77422.78;;;-143.36;45.88
39209;BME280;24929;51.982;4.664;2023-05-24T06:53:10;77370.59;;;-143.36;45.97
39209;BME280;24929;51.982;4.664;2023-05-24T06:55:36;77348.53;;;-143.36;45.49
39209;BME280;24929;51.982;4.664;2023-05-24T06:58:02;77336.47;;;-143.36;44.79
39209;BME280;24929;51.982;4.664;2023-05-24T07:00:28;77386.66;;;-143.36;44.68
39209;BME280;24929;51.982;4.664;2023-05-24T07:02:54;77346.50;;;-143.36;44.91
39209;BME280;24929;51.982;4.664;2023-05-24T07:05:20;77342.50;;;-143.36;44.34
39209;BME280;24929;51.982;4.664;2023-05-24T07:07:47;77302.34;;;-143.36;44.68
39209;BME280;24929;51.982;4.664;2023-05-24T07:13:35;77286.31;;;-143.36;43.39
39209;BME280;24929;51.982;4.664;2023-05-24T07:16:01;77310.38;;;-143.36;43.96
39209;BME280;24929;51.982;4.664;2023-05-24T07:18:26;77434.81;;;-143.36;43.64
39209;BME280;24929;51.982;4.664;2023-05-24T07:20:52;77318.41;;;-143.36;44.15
39209;BME280;24929;51.982;4.664;2023-05-24T07:23:19;77276.25;;;-143.36;42.18
39209;BME280;24929;51.982;4.664;2023-05-24T07:25:44;77260.22;;;-143.36;42.10
39209;BME280;24929;51.982;4.664;2023-05-24T07:28:10;77264.22;;;-143.36;41.87
39209;BME280;24929;51.982;4.664;2023-05-24T07:30:35;77278.28;;;-143.36;41.68
39209;BME280;24929;51.982;4.664;2023-05-24T07:33:03;77278.28;;;-143.36;41.69
39209;BME280;24929;51.982;4.664;2023-05-24T07:35:29;77300.34;;;-143.36;41.91
39209;BME280;24929;51.982;4.664;2023-05-24T07:37:55;77278.28;;;-143.36;41.85
39209;BME280;24929;51.982;4.664;2023-05-24T07:40:21;77254.19;;;-143.36;41.37
39209;BME280;24929;51.982;4.664;2023-05-24T07:42:48;77282.28;;;-143.36;41.61
39209;BME280;24929;51.982;4.664;2023-05-24T07:45:13;77268.25;;;-143.36;41.08
39209;BME280;24929;51.982;4.664;2023-05-24T07:47:40;77346.50;;;-143.36;42.64
39209;BME280;24929;51.982;4.664;2023-05-24T07:50:05;77280.28;;;-143.36;42.13
39209;BME280;24929;51.982;4.664;2023-05-24T07:52:31;77224.06;;;-143.36;41.95
39209;BME280;24929;51.982;4.664;2023-05-24T07:54:58;77165.88;;;-143.36;41.40
39209;BME280;24929;51.982;4.664;2023-05-24T07:57:24;77183.94;;;-143.36;40.82
39209;BME280;24929;51.982;4.664;2023-05-24T07:59:49;77173.91;;;-143.36;40.51
39209;BME280;24929;51.982;4.664;2023-05-24T08:02:16;77161.84;;;-143.36;40.53
39209;BME280;24929;51.982;4.664;2023-05-24T08:04:43;77113.69;;;-143.36;39.72
39209;BME280;24929;51.982;4.664;2023-05-24T08:07:10;77131.75;;;-143.36;40.57
39209;BME280;24929;51.982;4.664;2023-05-24T08:09:36;77145.81;;;-143.36;40.28
39209;BME280;24929;51.982;4.664;2023-05-24T08:12:05;77127.75;;;-143.36;40.17
39209;BME280;24929;51.982;4.664;2023-05-24T08:14:32;77087.59;;;-143.36;39.92
39209;BME280;24929;51.982;4.664;2023-05-24T08:16:58;77157.84;;;-143.36;40.12
39209;BME280;24929;51.982;4.664;2023-05-24T08:19:27;77087.59;;;-143.36;38.99
39209;BME280;24929;51.982;4.664;2023-05-24T08:22:00;77055.50;;;-143.36;39.32
39209;BME280;24929;51.982;4.664;2023-05-24T08:24:30;77045.44;;;-143.36;38.71
39209;BME280;24929;51.982;4.664;2023-05-24T08:26:56;76947.13;;;-143.36;39.05
39209;BME280;24929;51.982;4.664;2023-05-24T08:29:22;76975.22;;;-143.36;37.80
39209;BME280;24929;51.982;4.664;2023-05-24T08:31:48;76995.28;;;-143.36;37.40
39209;BME280;24929;51.982;4.664;2023-05-24T08:34:14;76957.16;;;-143.36;38.88
39209;BME280;24929;51.982;4.664;2023-05-24T08:36:40;76927.03;;;-143.36;38.47
39209;BME280;24929;51.982;4.664;2023-05-24T08:39:07;76973.19;;;-143.36;37.44
39209;BME280;24929;51.982;4.664;2023-05-24T08:41:34;77013.34;;;-143.36;38.74
39209;BME280;24929;51.982;4.664;2023-05-24T08:44:04;76997.28;;;-143.36;38.60
39209;BME280;24929;51.982;4.664;2023-05-24T08:46:33;76896.94;;;-143.36;38.69
39209;BME280;24929;51.982;4.664;2023-05-24T08:48:59;76923.03;;;-143.36;37.59
39209;BME280;24929;51.982;4.664;2023-05-24T08:51:28;76862.81;;;-143.36;37.08
39209;BME280;24929;51.982;4.664;2023-05-24T08:53:56;76742.41;;;-143.36;35.95
39209;BME280;24929;51.982;4.664;2023-05-24T08:56:24;76748.44;;;-143.36;35.79
39209;BME280;24929;51.982;4.664;2023-05-24T08:58:51;76856.81;;;-143.36;36.24
39209;BME280;24929;51.982;4.664;2023-05-24T09:01:17;76872.84;;;-143.36;35.53
39209;BME280;24929;51.982;4.664;2023-05-24T09:03:45;76890.91;;;-143.36;36.84
39209;BME280;24929;51.982;4.664;2023-05-24T09:06:15;76894.94;;;-143.36;37.51
39209;BME280;24929;51.982;4.664;2023-05-24T09:08:43;76850.78;;;-143.36;36.68
39209;BME280;24929;51.982;4.664;2023-05-24T09:11:10;76812.66;;;-143.36;36.19
39209;BME280;24929;51.982;4.664;2023-05-24T09:13:36;76838.75;;;-143.36;36.03
39209;BME280;24929;51.982;4.664;2023-05-24T09:16:05;76774.53;;;-143.36;35.82
39209;BME280;24929;51.982;4.664;2023-05-24T09:18:31;76991.25;;;-143.36;36.25
39209;BME280;24929;51.982;4.664;2023-05-24T09:20:57;76872.84;;;-143.36;35.99
39209;BME280;24929;51.982;4.664;2023-05-24T09:23:25;76822.69;;;-143.36;36.15
39209;BME280;24929;51.982;4.664;2023-05-24T09:25:51;76768.50;;;-143.36;34.70
39209;BME280;24929;51.982;4.664;2023-05-24T09:28:17;76742.41;;;-143.36;34.94
39209;BME280;24929;51.982;4.664;2023-05-24T09:30:57;76750.44;;;-143.36;34.64
39209;BME280;24929;51.982;4.664;2023-05-24T09:33:28;76802.63;;;-143.36;35.42
39209;BME280;24929;51.982;4.664;2023-05-24T09:35:57;76824.69;;;-143.36;35.46
39209;BME280;24929;51.982;4.664;2023-05-24T09:38:23;76716.31;;;-143.36;35.05
39209;BME280;24929;51.982;4.664;2023-05-24T09:43:30;76712.31;;;-143.36;34.50
39209;BME280;24929;51.982;4.664;2023-05-24T09:45:57;76776.53;;;-143.36;35.02
39209;BME280;24929;51.982;4.664;2023-05-24T09:48:25;76874.88;;;-143.36;34.94
39209;BME280;24929;51.982;4.664;2023-05-24T09:51:06;76888.91;;;-143.36;35.06
39209;BME280;24929;51.982;4.664;2023-05-24T09:53:35;76840.75;;;-143.36;36.02
39209;BME280;24929;51.982;4.664;2023-05-24T09:56:05;76788.56;;;-143.36;34.76
39209;BME280;24929;51.982;4.664;2023-05-24T09:58:32;76726.34;;;-143.36;34.24
39209;BME280;24929;51.982;4.664;2023-05-24T10:01:08;76666.16;;;-143.36;33.85
39209;BME280;24929;51.982;4.664;2023-05-24T10:03:35;76722.34;;;-143.36;33.66
39209;BME280;24929;51.982;4.664;2023-05-24T10:06:05;76690.22;;;-143.36;33.82
39209;BME280;24929;51.982;4.664;2023-05-24T10:08:34;76722.34;;;-143.36;33.51
39209;BME280;24929;51.982;4.664;2023-05-24T10:11:03;76786.56;;;-143.36;34.37
39209;BME280;24929;51.982;4.664;2023-05-24T10:13:31;76724.34;;;-143.36;34.24
39209;BME280;24929;51.982;4.664;2023-05-24T10:15:57;76774.53;;;-143.36;33.93
39209;BME280;24929;51.982;4.664;2023-05-24T10:18:23;76774.53;;;-143.36;33.82
39209;BME280;24929;51.982;4.664;2023-05-24T10:20:50;76736.38;;;-143.36;34.42
39209;BME280;24929;51.982;4.664;2023-05-24T10:23:18;76722.34;;;-143.36;34.60
39209;BME280;24929;51.982;4.664;2023-05-24T10:25:49;76756.47;;;-143.36;34.35
39209;BME280;24929;51.982;4.664;2023-05-24T10:28:16;76710.31;;;-143.36;34.79
39209;BME280;24929;51.982;4.664;2023-05-24T10:30:50;76720.34;;;-143.36;34.07
39209;BME280;24929;51.982;4.664;2023-05-24T10:33:18;76764.50;;;-143.36;34.32
39209;BME280;24929;51.982;4.664;2023-05-24T10:35:46;76718.31;;;-143.36;33.83
39209;BME280;24929;51.982;4.664;2023-05-24T10:38:11;76766.50;;;-143.36;34.51
39209;BME280;24929;51.982;4.664;2023-05-24T10:40:41;76660.13;;;-143.36;33.47
39209;BME280;24929;51.982;4.664;2023-05-24T10:43:08;76615.97;;;-143.36;33.50
39209;BME280;24929;51.982;4.664;2023-05-24T10:45:40;76611.97;;;-143.36;32.80
39209;BME280;24929;51.982;4.664;2023-05-24T10:50:38;76726.34;;;-143.36;33.76
39209;BME280;24929;51.982;4.664;2023-05-24T10:53:17;76644.06;;;-143.36;33.25
39209;BME280;24929;51.982;4.664;2023-05-24T10:55:59;76622.00;;;-143.36;33.60
39209;BME280;24929;51.982;4.664;2023-05-24T11:01:33;76732.38;;;-143.36;33.49
39209;BME280;24929;51.982;4.664;2023-05-24T11:04:14;76722.34;;;-143.36;33.42
39209;BME280;24929;51.982;4.664;2023-05-24T11:07:02;76605.94;;;-143.36;32.80
39209;BME280;24929;51.982;4.664;2023-05-24T11:09:28;76626.00;;;-143.36;34.11
39209;BME280;24929;51.982;4.664;2023-05-24T11:11:57;76642.06;;;-143.36;33.16
39209;BME280;24929;51.982;4.664;2023-05-24T11:14:26;76696.25;;;-143.36;33.41
39209;BME280;24929;51.982;4.664;2023-05-24T11:16:53;76780.53;;;-143.36;33.89
39209;BME280;24929;51.982;4.664;2023-05-24T11:19:28;76758.47;;;-143.36;34.00
39209;BME280;24929;51.982;4.664;2023-05-24T11:21:56;76792.59;;;-143.36;34.21
39209;BME280;24929;51.982;4.664;2023-05-24T11:24:25;76828.72;;;-143.36;34.40
39209;BME280;24929;51.982;4.664;2023-05-24T11:26:51;76898.94;;;-143.36;35.25
39209;BME280;24929;51.982;4.664;2023-05-24T11:29:21;76915.00;;;-143.36;35.79
39209;BME280;24929;51.982;4.664;2023-05-24T11:31:57;76848.78;;;-143.36;35.32
39209;BME280;24929;51.982;4.664;2023-05-24T11:34:29;76860.81;;;-143.36;35.14
39209;BME280;24929;51.982;4.664;2023-05-24T11:36:57;76822.69;;;-143.36;35.48
39209;BME280;24929;51.982;4.664;2023-05-24T11:39:29;76812.66;;;-143.36;35.38
39209;BME280;24929;51.982;4.664;2023-05-24T11:47:43;76955.13;;;-143.36;35.83
39209;BME280;24929;51.982;4.664;2023-05-24T11:50:11;76961.16;;;-143.36;35.67
39209;BME280;24929;51.982;4.664;2023-05-24T11:52:40;76983.25;;;-143.36;35.56
39209;BME280;24929;51.982;4.664;2023-05-24T11:55:09;76971.19;;;-143.36;35.79
39209;BME280;24929;51.982;4.664;2023-05-24T11:57:42;76900.97;;;-143.36;37.53
39209;BME280;24929;51.982;4.664;2023-05-24T12:00:17;76878.88;;;-143.36;35.93
39209;BME280;24929;51.982;4.664;2023-05-24T12:02:48;76943.09;;;-143.36;35.95
39209;BME280;24929;51.982;4.664;2023-05-24T12:05:17;76894.94;;;-143.36;36.15
39209;BME280;24929;51.982;4.664;2023-05-24T12:07:44;76890.91;;;-143.36;36.65
39209;BME280;24929;51.982;4.664;2023-05-24T12:10:16;76894.94;;;-143.36;36.44
39209;BME280;24929;51.982;4.664;2023-05-24T12:12:46;76882.88;;;-143.36;36.35
39209;BME280;24929;51.982;4.664;2023-05-24T12:15:11;76931.06;;;-143.36;36.61
39209;BME280;24929;51.982;4.664;2023-05-24T12:17:39;76947.13;;;-143.36;36.37
39209;BME280;24929;51.982;4.664;2023-05-24T12:20:08;76927.03;;;-143.36;36.97
39209;BME280;24929;51.982;4.664;2023-05-24T12:22:36;76943.09;;;-143.36;36.57
39209;BME280;24929;51.982;4.664;2023-05-24T12:25:03;76949.13;;;-143.36;36.99
39209;BME280;24929;51.982;4.664;2023-05-24T12:27:30;76915.00;;;-143.36;37.02
39209;BME280;24929;51.982;4.664;2023-05-24T12:30:05;76913.00;;;-143.36;36.73
39209;BME280;24929;51.982;4.664;2023-05-24T12:32:31;76921.03;;;-143.36;36.64
39209;BME280;24929;51.982;4.664;2023-05-24T12:34:57;76925.03;;;-143.36;36.24
39209;BME280;24929;51.982;4.664;2023-05-24T12:37:23;76915.00;;;-143.36;36.64
39209;BME280;24929;51.982;4.664;2023-05-24T12:39:49;76929.06;;;-143.36;36.52
39209;BME280;24929;51.982;4.664;2023-05-24T12:42:14;76915.00;;;-143.36;37.38
39209;BME280;24929;51.982;4.664;2023-05-24T12:44:41;76894.94;;;-143.36;36.63
39209;BME280;24929;51.982;4.664;2023-05-24T12:47:09;76937.06;;;-143.36;36.99
39209;BME280;24929;51.982;4.664;2023-05-24T12:49:35;76975.22;;;-143.36;37.09
39209;BME280;24929;51.982;4.664;2023-05-24T12:52:00;77013.34;;;-143.36;37.35
39209;BME280;24929;51.982;4.664;2023-05-24T12:54:27;76991.25;;;-143.36;37.69
39209;BME280;24929;51.982;4.664;2023-05-24T12:56:55;76963.16;;;-143.36;36.91
39209;BME280;24929;51.982;4.664;2023-05-24T12:59:21;76945.09;;;-143.36;36.76
39209;BME280;24929;51.982;4.664;2023-05-24T13:01:47;76939.09;;;-143.36;35.83
39209;BME280;24929;51.982;4.664;2023-05-24T13:04:18;76923.03;;;-143.36;36.55
39209;BME280;24929;51.982;4.664;2023-05-24T13:06:45;76921.03;;;-143.36;36.63
39209;BME280;24929;51.982;4.664;2023-05-24T13:09:13;76937.06;;;-143.36;37.22
39209;BME280;24929;51.982;4.664;2023-05-24T13:11:40;76933.06;;;-143.36;36.16
39209;BME280;24929;51.982;4.664;2023-05-24T13:14:07;76911.00;;;-143.36;36.45
39209;BME280;24929;51.982;4.664;2023-05-24T13:16:33;76884.91;;;-143.36;35.79
39209;BME280;24929;51.982;4.664;2023-05-24T13:18:59;76892.94;;;-143.36;36.16
39209;BME280;24929;51.982;4.664;2023-05-24T13:21:25;76896.94;;;-143.36;36.61